Time;durP1;ratioP1;P1;durP2;ratioP2;P2;SDS_P1;SDS_P2;PMS_P1;PMS_P2;Temp;Humidity;BMP_temperature;BMP_pressure;BME280_temperature;BME280_humidity;BME280_pressure;Samples;Min_cycle;Max_cycle;Signal;HPM_P1;HPM_P2
2023/05/08 00:01:12;;;;;;;14.48;7.63;;;;;;;18.12;76.23;99087.22;5091660;28;20032;-48
2023/05/08 00:03:38;;;;;;;16.83;7.68;;;;;;;18.00;75.83;99089.13;5091720;28;20063;-48
2023/05/08 00:06:05;;;;;;;12.13;6.53;;;;;;;17.80;76.36;99080.78;5092948;28;20024;-48
2023/05/08 00:08:30;;;;;;;14.63;5.53;;;;;;;17.74;76.82;99091.28;5074760;28;20076;-48
2023/05/08 00:10:56;;;;;;;9.70;5.43;;;;;;;17.80;77.16;99086.06;5092826;28;20055;-48
2023/05/08 00:13:22;;;;;;;12.25;5.43;;;;;;;17.73;76.74;99079.06;5092762;28;20024;-48
2023/05/08 00:15:48;;;;;;;16.85;7.45;;;;;;;17.64;77.20;99084.97;5091421;28;20089;-48
2023/05/08 00:18:14;;;;;;;14.98;7.65;;;;;;;17.57;77.36;99074.50;5091396;28;20436;-48
2023/05/08 00:20:40;;;;;;;10.55;6.60;;;;;;;17.53;77.43;99073.38;5092593;28;20024;-48
2023/05/08 00:23:06;;;;;;;15.90;6.55;;;;;;;17.45;77.96;99065.78;5092813;28;20047;-48
2023/05/08 00:25:32;;;;;;;13.43;7.90;;;;;;;17.44;78.00;99069.47;5092498;28;20028;-48
2023/05/08 00:27:58;;;;;;;11.95;5.72;;;;;;;17.49;78.28;99069.59;5091183;28;20177;-48
2023/05/08 00:30:25;;;;;;;8.95;4.20;;;;;;;17.56;77.74;99064.94;5092407;28;20036;-48
2023/05/08 00:32:51;;;;;;;6.70;3.75;;;;;;;17.54;77.02;99067.81;5091115;28;20024;-48
2023/05/08 00:35:16;;;;;;;8.80;3.78;;;;;;;17.47;76.90;99069.81;5090736;28;20040;-49
2023/05/08 00:37:42;;;;;;;6.07;3.17;;;;;;;17.40;76.90;99073.63;5090996;28;20549;-48
2023/05/08 00:40:09;;;;;;;6.07;2.65;;;;;;;17.40;77.21;99070.97;5090966;28;20202;-48
2023/05/08 00:42:35;;;;;;;7.03;3.33;;;;;;;17.43;76.99;99081.13;5091238;28;20091;-48
2023/05/08 00:45:02;;;;;;;11.00;2.72;;;;;;;17.42;76.98;99072.34;5092157;28;20024;-48
2023/05/08 00:47:28;;;;;;;3.53;2.30;;;;;;;17.42;76.76;99072.34;5092118;28;20028;-48
2023/05/08 00:49:55;;;;;;;5.15;3.35;;;;;;;17.43;76.87;99078.50;5092092;28;20032;-48
2023/05/08 00:52:21;;;;;;;25.20;3.45;;;;;;;17.40;76.86;99074.44;5090877;28;20017;-48
2023/05/08 00:54:48;;;;;;;17.48;3.97;;;;;;;17.44;77.33;99072.91;5092040;28;20027;-48
2023/05/08 00:57:15;;;;;;;16.48;9.95;;;;;;;17.53;77.26;99073.38;5092026;28;20099;-48
2023/05/08 00:59:44;;;;;;;9.27;4.72;;;;;;;17.56;77.20;99070.22;5090996;28;20440;-49
2023/05/08 01:02:10;;;;;;;11.35;8.10;;;;;;;17.51;77.14;99072.81;5090905;28;20160;-48
2023/05/08 01:04:36;;;;;;;7.30;4.75;;;;;;;17.61;77.43;99075.66;5090954;28;20067;-49
2023/05/08 01:07:02;;;;;;;9.38;4.00;;;;;;;17.69;76.71;99085.88;5090573;28;20509;-48
2023/05/08 01:09:28;;;;;;;15.93;6.03;;;;;;;17.68;76.45;99073.66;5090569;28;20016;-48
2023/05/08 01:12:12;;;;;;;11.85;8.45;;;;;;;17.72;76.28;99074.78;5091858;28;20027;-48
2023/05/08 01:15:03;;;;;;;39.83;28.60;;;;;;;17.65;75.73;99076.78;5092110;28;20020;-48
2023/05/08 01:17:35;;;;;;;13.60;7.95;;;;;;;17.36;75.85;99082.09;5091899;28;20043;-48
2023/05/08 01:20:10;;;;;;;8.30;6.30;;;;;;;17.14;76.93;99079.25;5091768;28;20046;-49
2023/05/08 01:23:03;;;;;;;9.65;6.60;;;;;;;17.15;78.18;99088.00;5091779;28;20176;-48
2023/05/08 01:25:48;;;;;;;10.88;7.35;;;;;;;17.30;77.57;99075.03;5091725;28;20034;-48
2023/05/08 01:28:53;;;;;;;10.35;8.30;;;;;;;17.26;76.85;99073.88;5091683;28;20028;-49
2023/05/08 01:32:00;;;;;;;9.57;8.27;;;;;;;17.12;77.28;99083.97;5090386;28;20447;-49
2023/05/08 01:34:34;;;;;;;18.73;12.40;;;;;;;17.00;77.76;99082.34;5091613;28;20029;-48
2023/05/08 01:37:04;;;;;;;32.40;29.15;;;;;;;16.91;78.39;99085.38;5091516;28;20032;-48
2023/05/08 01:39:45;;;;;;;14.02;12.65;;;;;;;16.89;78.94;99084.78;5090291;28;20020;-49
2023/05/08 01:42:33;;;;;;;14.15;11.48;;;;;;;16.88;79.22;99085.84;5090294;28;20501;-49
2023/05/08 01:45:04;;;;;;;17.70;11.02;;;;;;;17.00;79.25;99092.97;5091653;28;20463;-49
2023/05/08 01:47:34;;;;;;;11.80;10.45;;;;;;;17.09;79.53;99091.59;5091624;28;20028;-49
2023/05/08 01:50:09;;;;;;;13.15;9.73;;;;;;;17.31;79.16;99095.22;5107178;28;20028;-49
2023/05/08 01:52:47;;;;;;;14.85;9.32;;;;;;;17.34;78.40;99091.28;5091550;28;20032;-49
2023/05/08 01:55:20;;;;;;;9.80;7.82;;;;;;;17.37;78.14;99086.34;5091389;28;20024;-48
2023/05/08 01:57:53;;;;;;;11.43;8.60;;;;;;;17.40;77.96;99079.75;5090114;28;20040;-48
2023/05/08 02:00:22;;;;;;;14.20;9.48;;;;;;;17.38;77.57;99081.81;5091418;28;20042;-49
2023/05/08 02:02:50;;;;;;;10.30;7.50;;;;;;;17.51;78.13;99089.53;5091074;28;20030;-49
2023/05/08 02:05:17;;;;;;;12.50;8.48;;;;;;;17.57;77.20;99083.28;5093845;28;20032;-48
2023/05/08 02:07:45;;;;;;;12.25;8.95;;;;;;;17.60;77.15;99086.50;5095162;28;20032;-48
2023/05/08 02:10:12;;;;;;;17.70;8.90;;;;;;;17.58;76.96;99084.88;5095325;28;20090;-48
2023/05/08 02:12:40;;;;;;;12.55;8.88;;;;;;;17.75;77.07;99082.28;5094155;28;20385;-49
2023/05/08 02:15:08;;;;;;;10.98;8.20;;;;;;;17.89;76.73;99076.72;5094956;28;20024;-49
2023/05/08 02:17:37;;;;;;;12.45;9.60;;;;;;;17.96;76.15;99077.38;5093691;28;20059;-49
2023/05/08 02:20:04;;;;;;;11.70;9.07;;;;;;;17.84;74.76;99073.97;5094916;28;20049;-48
2023/05/08 02:22:31;;;;;;;11.52;8.00;;;;;;;17.63;75.08;99076.22;5094889;28;20032;-49
2023/05/08 02:24:57;;;;;;;9.43;8.43;;;;;;;17.42;75.61;99076.84;5094821;28;20028;-48
2023/05/08 02:27:28;;;;;;;14.32;8.80;;;;;;;17.31;76.48;99074.00;5093451;28;20016;-49
2023/05/08 02:29:54;;;;;;;13.38;9.02;;;;;;;17.29;76.80;99078.75;5093468;28;20064;-49
2023/05/08 02:32:22;;;;;;;11.02;9.80;;;;;;;17.30;76.91;99074.22;5094690;28;20027;-48
2023/05/08 02:34:52;;;;;;;13.20;9.75;;;;;;;17.30;77.26;99083.00;5094327;28;20035;-49
2023/05/08 02:37:21;;;;;;;10.60;9.15;;;;;;;17.34;76.76;99078.03;5093371;28;20118;-48
2023/05/08 02:39:48;;;;;;;9.73;8.60;;;;;;;17.32;76.86;99072.94;5094583;28;20025;-48
2023/05/08 02:42:14;;;;;;;19.90;11.20;;;;;;;17.24;77.02;99075.16;5094568;28;20095;-48
2023/05/08 02:44:40;;;;;;;17.80;9.18;;;;;;;17.34;77.94;99083.34;5093169;28;20024;-48
2023/05/08 02:47:28;;;;;;;15.60;10.35;;;;;;;17.63;77.78;99070.91;5094410;28;20024;-49
2023/05/08 02:50:17;;;;;;;15.60;10.48;;;;;;;17.67;76.66;99066.75;5094318;28;20089;-49
2023/05/08 02:52:53;;;;;;;14.40;9.55;;;;;;;17.47;76.12;99063.72;5079026;28;20028;-49
2023/05/08 02:55:40;;;;;;;13.77;9.48;;;;;;;17.29;77.44;99067.34;5093138;28;20028;-49
2023/05/08 02:58:23;;;;;;;9.63;8.60;;;;;;;17.50;77.68;99069.31;5092894;28;20028;-48
2023/05/08 03:01:05;;;;;;;14.73;10.93;;;;;;;17.77;76.87;99069.59;5094152;28;20105;-48
2023/05/08 03:03:45;;;;;;;15.15;10.90;;;;;;;17.91;76.31;99069.34;5094099;28;20482;-49
2023/05/08 03:06:18;;;;;;;15.80;11.90;;;;;;;17.95;75.53;99067.81;5094021;28;20107;-49
2023/05/08 03:08:47;;;;;;;20.70;12.02;;;;;;;17.95;75.40;99065.16;5094023;28;20042;-48
2023/05/08 03:11:21;;;;;;;18.30;11.40;;;;;;;18.01;75.19;99074.00;5093851;28;20055;-48
2023/05/08 03:13:49;;;;;;;15.27;11.95;;;;;;;18.06;75.54;99069.56;5092119;28;20016;-49
2023/05/08 03:16:21;;;;;;;13.13;10.73;;;;;;;18.11;75.01;99067.03;5091982;28;20024;-48
2023/05/08 03:18:53;;;;;;;13.95;10.63;;;;;;;18.19;74.87;99065.00;5093857;28;20553;-49
2023/05/08 03:21:21;;;;;;;13.68;12.23;;;;;;;18.17;74.57;99068.72;5093798;28;20447;-49
2023/05/08 03:23:50;;;;;;;13.70;12.23;;;;;;;18.24;74.60;99065.91;5092405;28;20104;-49
2023/05/08 03:26:21;;;;;;;12.65;11.40;;;;;;;18.13;74.20;99066.78;5092386;28;20031;-48
2023/05/08 03:28:51;;;;;;;23.08;11.77;;;;;;;18.04;74.62;99068.22;5093622;28;20071;-48
2023/05/08 03:31:21;;;;;;;13.85;10.60;;;;;;;18.08;74.99;99067.47;5093744;28;20035;-48
2023/05/08 03:33:49;;;;;;;16.00;11.80;;;;;;;18.14;74.65;99069.19;5093484;28;20120;-48
2023/05/08 03:36:17;;;;;;;14.65;11.52;;;;;;;18.11;74.12;99069.69;5091249;28;20044;-49
2023/05/08 03:38:43;;;;;;;13.93;11.50;;;;;;;17.90;74.29;99063.19;5092520;28;20517;-49
2023/05/08 03:41:10;;;;;;;13.50;11.35;;;;;;;17.78;74.82;99065.06;5092427;28;20026;-48
2023/05/08 03:43:36;;;;;;;22.65;12.05;;;;;;;17.74;75.35;99069.25;5074583;28;20108;-48
2023/05/08 03:46:07;;;;;;;22.85;11.65;;;;;;;17.65;75.68;99066.19;5092328;28;20024;-49
2023/05/08 03:48:34;;;;;;;21.13;12.40;;;;;;;17.71;76.27;99070.53;5091026;28;20031;-49
2023/05/08 03:51:03;;;;;;;16.48;10.25;;;;;;;17.83;75.86;99078.47;5092528;28;20105;-48
2023/05/08 03:53:30;;;;;;;14.82;9.85;;;;;;;17.81;75.57;99074.41;5092336;28;20028;-48
2023/05/08 03:55:57;;;;;;;15.32;9.27;;;;;;;17.92;76.20;99078.88;5092184;28;20493;-48
2023/05/08 03:58:50;;;;;;;11.90;8.57;;;;;;;18.27;75.78;99075.22;5090881;28;20050;-48
2023/05/08 04:01:31;;;;;;;13.32;10.13;;;;;;;18.25;74.34;99080.81;5092180;28;20085;-48
2023/05/08 04:04:08;;;;;;;11.93;9.98;;;;;;;18.19;74.53;99080.94;5090784;28;20501;-49
2023/05/08 04:06:44;;;;;;;21.90;11.07;;;;;;;18.19;74.73;99088.91;5090812;28;20114;-48
2023/05/08 04:09:16;;;;;;;12.85;9.85;;;;;;;18.22;74.02;99085.78;5091999;28;20035;-48
2023/05/08 04:11:52;;;;;;;11.30;9.57;;;;;;;18.15;74.09;99081.44;5091934;28;20055;-48
2023/05/08 04:14:20;;;;;;;15.05;12.02;;;;;;;18.06;74.23;99087.38;5092223;28;20024;-48
2023/05/08 04:16:52;;;;;;;20.55;10.38;;;;;;;18.10;74.71;99088.50;5091750;28;20072;-49
2023/05/08 04:19:26;;;;;;;13.68;10.70;;;;;;;18.24;74.55;99083.69;5091883;28;20099;-48
2023/05/08 04:21:56;;;;;;;17.80;11.32;;;;;;;18.36;74.64;99084.41;5090497;28;20028;-48
2023/05/08 04:24:26;;;;;;;27.00;12.30;;;;;;;18.55;73.87;99084.97;5091999;28;20397;-48
2023/05/08 04:26:53;;;;;;;22.75;12.13;;;;;;;18.49;73.68;99080.63;5091394;28;20028;-49
2023/05/08 04:29:19;;;;;;;14.68;13.05;;;;;;;18.38;73.32;99078.88;5091685;28;20027;-49
2023/05/08 04:31:47;;;;;;;16.08;13.00;;;;;;;18.07;74.27;99084.47;5090311;28;20027;-48
2023/05/08 04:34:13;;;;;;;24.17;15.00;;;;;;;18.08;75.66;99083.41;5091640;28;20024;-48
2023/05/08 04:36:39;;;;;;;13.90;12.10;;;;;;;18.04;75.28;99087.59;5044154;28;1322461;-49
2023/05/08 04:39:05;;;;;;;16.13;12.70;;;;;;;18.06;75.69;99085.50;5091031;28;20039;-49
2023/05/08 04:41:31;;;;;;;15.70;11.45;;;;;;;17.99;75.02;99082.22;5092305;28;20017;-49
2023/05/08 04:43:57;;;;;;;18.92;11.90;;;;;;;17.95;75.80;99087.19;5092503;28;20015;-48
2023/05/08 04:46:23;;;;;;;24.38;12.23;;;;;;;18.23;76.07;99092.69;5092194;28;20395;-49
2023/05/08 04:48:49;;;;;;;18.35;13.13;;;;;;;18.56;75.30;99082.06;5092203;28;20027;-48
2023/05/08 04:51:15;;;;;;;18.33;10.68;;;;;;;18.86;74.22;99088.94;5090841;28;20051;-48
2023/05/08 04:53:40;;;;;;;19.02;11.40;;;;;;;19.18;72.91;99087.50;5092165;28;20537;-48
2023/05/08 04:56:06;;;;;;;19.63;10.38;;;;;;;19.41;71.85;99095.22;5092282;28;20032;-47
2023/05/08 04:58:32;;;;;;;14.20;10.82;;;;;;;19.56;70.95;99083.97;5092097;28;20464;-46
2023/05/08 05:01:02;;;;;;;18.23;10.80;;;;;;;19.67;70.37;99087.53;5092076;28;20028;-46
2023/05/08 05:03:27;;;;;;;18.35;10.65;;;;;;;19.70;70.07;99090.50;5090749;28;20016;-46
2023/05/08 05:06:02;;;;;;;19.38;10.23;;;;;;;19.68;69.61;99089.13;5091912;28;20036;-46
2023/05/08 05:08:27;;;;;;;13.75;10.07;;;;;;;19.71;69.31;99092.13;5073930;28;20036;-46
2023/05/08 05:10:53;;;;;;;15.10;10.40;;;;;;;19.55;69.13;99100.97;5091879;28;20054;-46
2023/05/08 05:13:19;;;;;;;11.43;10.05;;;;;;;19.44;69.63;99099.25;5091880;28;20032;-46
2023/05/08 05:15:45;;;;;;;18.83;10.40;;;;;;;19.28;69.40;99095.59;5090459;28;20055;-47
2023/05/08 05:18:11;;;;;;;10.88;8.63;;;;;;;19.05;69.67;99105.41;5091890;28;20059;-46
2023/05/08 05:20:37;;;;;;;17.25;10.27;;;;;;;18.89;70.22;99108.91;5091730;28;20494;-46
2023/05/08 05:23:03;;;;;;;17.67;10.10;;;;;;;18.89;70.82;99115.03;5090571;28;20096;-46
2023/05/08 05:25:29;;;;;;;16.00;8.82;;;;;;;19.04;70.71;99109.13;5092041;28;20055;-46
2023/05/08 05:27:55;;;;;;;14.85;7.60;;;;;;;19.18;70.27;99109.59;5091737;28;20478;-46
2023/05/08 05:30:20;;;;;;;14.48;7.40;;;;;;;19.30;69.32;99118.25;5090402;28;20144;-46
2023/05/08 05:32:46;;;;;;;12.23;8.48;;;;;;;19.26;69.52;99111.03;5091782;28;20107;-46
2023/05/08 05:35:12;;;;;;;14.32;7.78;;;;;;;19.28;69.36;99111.56;5091278;28;20129;-47
2023/05/08 05:37:38;;;;;;;17.15;6.30;;;;;;;19.42;69.29;99114.66;5092459;28;20371;-46
2023/05/08 05:40:04;;;;;;;10.20;5.32;;;;;;;19.66;68.59;99107.22;5094496;28;20027;-46
2023/05/08 05:42:30;;;;;;;5.80;4.97;;;;;;;19.90;67.76;99113.09;5095676;28;20477;-47
2023/05/08 05:44:56;;;;;;;11.10;5.47;;;;;;;20.10;66.78;99105.31;5095601;28;20024;-46
2023/05/08 05:47:22;;;;;;;12.52;4.75;;;;;;;20.30;65.65;99114.53;5095521;28;20027;-46
2023/05/08 05:49:48;;;;;;;12.13;4.60;;;;;;;20.43;65.00;99111.47;5094245;28;20489;-46
2023/05/08 05:52:14;;;;;;;7.72;4.32;;;;;;;20.50;64.37;99104.06;5094208;28;20121;-46
2023/05/08 05:54:40;;;;;;;6.82;4.22;;;;;;;20.38;64.76;99108.75;5095420;28;20477;-47
2023/05/08 05:57:06;;;;;;;5.85;3.60;;;;;;;20.32;64.47;99110.59;5095288;28;20482;-46
2023/05/08 05:59:32;;;;;;;501.40;451.58;;;;;;;20.32;64.78;99113.25;5094038;28;20050;-46
2023/05/08 06:01:58;;;;;;;730.13;459.10;;;;;;;20.38;64.33;99111.41;5095275;28;20481;-47
2023/05/08 06:04:23;;;;;;;112.18;51.08;;;;;;;20.37;64.12;99115.16;5095270;28;20031;-47
2023/05/08 06:06:49;;;;;;;27.80;14.30;;;;;;;20.32;64.32;99115.09;5095208;28;20032;-46
2023/05/08 06:09:15;;;;;;;13.48;7.85;;;;;;;20.24;64.12;99108.38;5093835;28;20054;-46
2023/05/08 06:11:41;;;;;;;10.88;5.78;;;;;;;20.22;64.08;99113.16;5093794;28;20028;-47
2023/05/08 06:14:07;;;;;;;12.63;4.55;;;;;;;20.31;64.30;99111.63;5093837;28;20532;-46
2023/05/08 06:16:34;;;;;;;13.35;5.35;;;;;;;20.65;63.74;99092.72;5093641;28;20038;-46
2023/05/08 06:19:00;;;;;;;8.98;3.92;;;;;;;21.02;62.89;99094.53;5094863;28;20016;-47
2023/05/08 06:21:27;;;;;;;12.25;4.35;;;;;;;21.31;61.61;99094.97;5093613;28;20027;-47
2023/05/08 06:23:53;;;;;;;12.63;4.55;;;;;;;21.47;61.28;99095.03;5095172;28;20028;-46
2023/05/08 06:26:20;;;;;;;17.00;4.95;;;;;;;21.51;60.75;99094.28;5094822;28;20032;-47
2023/05/08 06:28:45;;;;;;;7.90;3.38;;;;;;;21.54;60.38;99095.59;5093446;28;20150;-47
2023/05/08 06:31:11;;;;;;;12.10;3.35;;;;;;;21.44;59.80;99096.38;5093531;28;20103;-47
2023/05/08 06:33:37;;;;;;;15.55;3.65;;;;;;;21.41;60.19;99090.72;5093366;28;20401;-47
2023/05/08 06:36:05;;;;;;;8.45;3.08;;;;;;;21.56;60.49;99088.13;5093034;28;20043;-47
2023/05/08 06:38:30;;;;;;;8.48;3.58;;;;;;;21.92;60.08;99091.69;5094564;28;20031;-47
2023/05/08 06:40:56;;;;;;;3.42;2.15;;;;;;;22.17;58.86;99098.13;5094545;28;20398;-47
2023/05/08 06:43:22;;;;;;;6.47;2.50;;;;;;;22.26;58.24;99103.78;5094554;28;20016;-47
2023/05/08 06:45:47;;;;;;;17.70;3.20;;;;;;;22.12;57.74;99096.25;5093181;28;20023;-47
2023/05/08 06:48:13;;;;;;;5.72;2.40;;;;;;;21.92;58.07;99096.25;5092987;28;20024;-47
2023/05/08 06:50:39;;;;;;;10.43;3.10;;;;;;;21.85;58.84;99095.69;5094331;28;20028;-47
2023/05/08 06:53:06;;;;;;;12.23;2.50;;;;;;;22.02;58.50;99098.13;5093049;28;20073;-47
2023/05/08 06:55:32;;;;;;;8.65;2.63;;;;;;;22.07;58.17;99096.28;5092988;28;20034;-47
2023/05/08 06:57:58;;;;;;;7.53;2.65;;;;;;;22.03;57.57;99103.19;5094273;28;20497;-46
2023/05/08 07:00:24;;;;;;;8.85;2.38;;;;;;;21.97;57.94;99104.25;5094202;28;20028;-47
2023/05/08 07:02:50;;;;;;;7.05;2.90;;;;;;;21.91;57.64;99102.63;5094090;28;20549;-47
2023/05/08 07:05:16;;;;;;;8.15;3.30;;;;;;;21.80;58.04;99104.50;5092742;28;20031;-47
2023/05/08 07:07:42;;;;;;;9.23;2.47;;;;;;;21.86;58.05;99108.00;5092790;28;20047;-46
2023/05/08 07:10:08;;;;;;;9.55;2.47;;;;;;;22.08;57.25;99113.09;5094005;28;20083;-46
2023/05/08 07:12:34;;;;;;;7.15;2.08;;;;;;;22.18;56.75;99110.44;5092670;28;20020;-47
2023/05/08 07:15:00;;;;;;;7.93;2.58;;;;;;;22.33;56.61;99118.50;5093906;28;20016;-47
2023/05/08 07:17:25;;;;;;;5.75;2.22;;;;;;;22.39;55.81;99111.28;5093844;28;20027;-46
2023/05/08 07:19:51;;;;;;;11.00;2.78;;;;;;;22.45;56.47;99112.88;5093873;28;20036;-47
2023/05/08 07:22:17;;;;;;;9.63;2.65;;;;;;;22.68;55.73;99121.44;5093826;28;20394;-47
2023/05/08 07:24:42;;;;;;;8.02;1.90;;;;;;;22.90;54.90;99121.94;5093845;28;20024;-46
2023/05/08 07:27:08;;;;;;;10.55;2.58;;;;;;;23.32;54.32;99128.81;5093656;28;20059;-47
2023/05/08 07:29:39;;;;;;;11.93;3.28;;;;;;;23.85;52.85;99128.34;5092336;28;20485;-47
2023/05/08 07:32:08;;;;;;;8.85;2.55;;;;;;;25.36;49.88;99119.56;5093562;28;20114;-46
2023/05/08 07:34:34;;;;;;;11.60;2.63;;;;;;;26.64;46.37;99119.63;5075152;28;20507;-48
2023/05/08 07:36:59;;;;;;;5.72;2.08;;;;;;;26.32;45.10;99121.22;5093442;28;20052;-46
2023/05/08 07:39:25;;;;;;;9.00;1.90;;;;;;;25.88;46.31;99115.09;5092113;28;20024;-46
2023/05/08 07:41:51;;;;;;;9.00;2.20;;;;;;;25.41;46.52;99121.38;5092063;28;20024;-46
2023/05/08 07:44:16;;;;;;;10.20;2.80;;;;;;;24.97;47.71;99138.50;5093376;28;20012;-46
2023/05/08 07:46:42;;;;;;;12.73;2.72;;;;;;;24.74;47.63;99132.81;5093277;28;20031;-46
2023/05/08 07:49:08;;;;;;;6.22;2.38;;;;;;;25.36;47.09;99126.84;5093328;28;20017;-46
2023/05/08 07:51:33;;;;;;;7.05;2.00;;;;;;;25.28;46.27;99133.63;5091826;28;20165;-46
2023/05/08 07:53:59;;;;;;;9.07;2.00;;;;;;;25.52;46.14;99130.94;5093132;28;20146;-47
2023/05/08 07:56:26;;;;;;;11.93;2.13;;;;;;;26.58;43.94;99127.00;5091739;28;20041;-47
2023/05/08 07:58:51;;;;;;;7.88;2.08;;;;;;;26.69;42.68;99119.56;5093051;28;20023;-47
2023/05/08 08:01:17;;;;;;;6.35;1.67;;;;;;;26.13;43.53;99120.44;5092411;28;20093;-46
2023/05/08 08:03:44;;;;;;;6.03;1.90;;;;;;;25.77;44.31;99121.72;5091624;28;20034;-46
2023/05/08 08:06:10;;;;;;;9.40;2.17;;;;;;;25.91;44.05;99119.94;5093175;28;20501;-47
2023/05/08 08:08:36;;;;;;;10.57;2.08;;;;;;;26.55;43.18;99129.47;5091541;28;20028;-47
2023/05/08 08:11:02;;;;;;;11.07;2.30;;;;;;;27.70;41.48;99129.44;5093093;28;20112;-47
2023/05/08 08:13:28;;;;;;;10.43;2.38;;;;;;;29.09;39.64;99118.00;5091471;28;20110;-47
2023/05/08 08:15:53;;;;;;;5.88;1.50;;;;;;;30.51;36.93;99107.84;5091338;28;20070;-47
2023/05/08 08:18:19;;;;;;;6.10;1.65;;;;;;;30.97;35.43;99112.50;5091393;28;20024;-47
2023/05/08 08:20:45;;;;;;;3.88;1.35;;;;;;;30.53;35.48;99109.13;5091297;28;20024;-47
2023/05/08 08:23:10;;;;;;;3.88;1.48;;;;;;;30.23;35.44;99108.97;5091322;28;20052;-47
2023/05/08 08:25:36;;;;;;;7.22;1.95;;;;;;;30.40;35.48;99104.66;5091264;28;20436;-47
2023/05/08 08:28:02;;;;;;;6.32;2.03;;;;;;;30.94;34.46;99109.63;5092537;28;20024;-47
2023/05/08 08:30:27;;;;;;;7.82;2.15;;;;;;;31.08;33.69;99098.56;5091141;28;20025;-47
2023/05/08 08:32:53;;;;;;;3.83;1.63;;;;;;;31.09;33.05;99103.69;5074352;28;20032;-47
2023/05/08 08:35:19;;;;;;;6.88;1.63;;;;;;;30.53;33.79;99111.81;5073891;28;20060;-47
2023/05/08 08:37:44;;;;;;;7.40;2.10;;;;;;;29.04;35.55;99105.44;5092340;28;20020;-47
2023/05/08 08:40:10;;;;;;;6.57;1.60;;;;;;;27.61;37.99;99120.50;5092363;28;20102;-47
2023/05/08 08:42:36;;;;;;;3.92;1.63;;;;;;;26.56;39.79;99117.59;5091019;28;20550;-47
2023/05/08 08:45:02;;;;;;;7.35;1.80;;;;;;;25.80;41.77;99113.06;5092535;28;20028;-47
2023/05/08 08:47:33;;;;;;;6.70;1.98;;;;;;;26.97;40.95;99125.78;5091003;28;20028;-47
2023/05/08 08:50:02;;;;;;;7.85;1.60;;;;;;;30.02;36.76;99106.16;5090929;28;20032;-47
2023/05/08 08:52:46;;;;;;;4.35;1.65;;;;;;;32.35;32.19;99106.44;5092075;28;20020;-47
2023/05/08 08:55:15;;;;;;;7.15;2.28;;;;;;;31.49;31.27;99111.44;5092028;28;20489;-47
2023/05/08 08:57:53;;;;;;;8.05;2.33;;;;;;;30.43;33.01;99107.53;5090702;28;20035;-47
2023/05/08 09:00:21;;;;;;;7.15;2.25;;;;;;;30.12;33.58;99105.00;5090771;28;20055;-47
2023/05/08 09:02:47;;;;;;;11.18;2.13;;;;;;;30.93;33.00;99108.03;5090708;28;20233;-47
2023/05/08 09:05:13;;;;;;;6.88;1.30;;;;;;;31.74;31.65;99096.09;5092219;28;20036;-47
2023/05/08 09:07:40;;;;;;;11.15;2.08;;;;;;;31.84;31.57;99103.06;5090620;28;20042;-47
2023/05/08 09:10:07;;;;;;;9.52;1.50;;;;;;;31.63;31.36;99106.56;5090621;28;20486;-47
2023/05/08 09:12:33;;;;;;;5.50;1.60;;;;;;;31.01;32.17;99112.66;5091041;28;20027;-47
2023/05/08 09:14:58;;;;;;;2.97;1.23;;;;;;;29.94;33.58;99120.47;5091914;28;20024;-47
2023/05/08 09:17:24;;;;;;;3.40;1.38;;;;;;;29.81;34.20;99118.72;5091751;28;20027;-47
2023/05/08 09:19:51;;;;;;;5.18;1.88;;;;;;;29.55;34.90;99116.72;5091824;28;20032;-46
2023/05/08 09:22:17;;;;;;;5.75;2.10;;;;;;;30.72;33.18;99116.84;5091825;28;20105;-47
2023/05/08 09:24:59;;;;;;;3.67;1.52;;;;;;;32.44;30.79;99117.22;5090470;28;20115;-47
2023/05/08 09:27:27;;;;;;;12.80;2.40;;;;;;;32.68;29.81;99110.28;5092051;28;20377;-47
2023/05/08 09:30:03;;;;;;;7.65;2.60;;;;;;;31.65;30.71;99115.19;5091771;28;20481;-47
2023/05/08 09:32:30;;;;;;;5.13;1.40;;;;;;;30.33;32.64;99124.13;5091670;28;20115;-47
2023/05/08 09:34:56;;;;;;;6.38;1.50;;;;;;;29.75;34.03;99125.38;5091713;28;20044;-47
2023/05/08 09:37:22;;;;;;;4.22;1.70;;;;;;;29.48;34.81;99128.03;5091633;28;20028;-47
2023/05/08 09:39:48;;;;;;;6.68;1.40;;;;;;;29.48;34.16;99130.72;5091927;28;20110;-47
2023/05/08 09:42:15;;;;;;;6.63;1.55;;;;;;;29.66;34.23;99125.34;5091634;28;20024;-47
2023/05/08 09:44:53;;;;;;;6.65;1.60;;;;;;;29.86;33.50;99130.19;5091562;28;20028;-47
2023/05/08 09:47:21;;;;;;;6.95;1.40;;;;;;;30.23;33.44;99127.13;5091969;28;20033;-47
2023/05/08 09:49:58;;;;;;;2.30;1.17;;;;;;;30.14;33.18;99121.72;5091564;28;20020;-48
2023/05/08 09:52:25;;;;;;;7.90;1.40;;;;;;;29.79;33.74;99129.06;5090269;28;20040;-47
2023/05/08 09:54:58;;;;;;;3.35;1.50;;;;;;;29.47;34.02;99128.34;5091517;28;20371;-47
2023/05/08 09:57:26;;;;;;;12.23;3.00;;;;;;;28.91;34.96;99129.88;5090106;28;20034;-47
2023/05/08 10:00:00;;;;;;;6.93;2.03;;;;;;;28.71;35.65;99139.31;5091521;28;20024;-47
2023/05/08 10:02:25;;;;;;;;;;;;;;;29.43;33.88;99116.56;5091915;28;20478;-47
2023/05/08 10:04:51;;;;;;;4.53;1.40;;;;;;;29.84;33.44;99139.72;5090134;28;19958;-47
2023/05/08 10:07:27;;;;;;;11.40;2.17;;;;;;;30.68;31.86;99126.75;5090109;28;20402;-47
2023/05/08 10:10:05;;;;;;;4.50;0.85;;;;;;;30.30;32.31;99122.06;5091515;28;20081;-47
2023/05/08 10:12:32;;;;;;;4.32;1.10;;;;;;;30.54;32.61;99126.16;5091610;28;20382;-47
2023/05/08 10:14:58;;;;;;;2.75;1.15;;;;;;;31.02;31.75;99128.56;5091313;28;20021;-47
2023/05/08 10:17:31;;;;;;;7.20;1.65;;;;;;;30.60;31.80;99130.28;5089888;28;20107;-47
2023/05/08 10:20:06;;;;;;;5.65;1.30;;;;;;;30.17;33.00;99121.09;5091333;28;20028;-47
2023/05/08 10:22:36;;;;;;;9.98;1.65;;;;;;;31.43;31.76;99123.56;5091341;28;20631;-47
2023/05/08 10:25:02;;;;;;;3.40;1.23;;;;;;;32.46;30.11;99125.84;5094528;28;20422;-47
2023/05/08 10:27:44;;;;;;;7.32;2.00;;;;;;;32.01;30.13;99132.00;5094835;28;20040;-47
2023/05/08 10:30:13;;;;;;;5.28;1.58;;;;;;;30.96;31.23;99127.16;5093800;28;20028;-47
2023/05/08 10:32:43;;;;;;;3.05;1.00;;;;;;;30.02;32.09;99132.41;5093479;28;20107;-47
2023/05/08 10:35:10;;;;;;;7.50;1.50;;;;;;;29.16;34.00;99134.63;5094702;28;20399;-47
2023/05/08 10:37:37;;;;;;;8.85;1.40;;;;;;;28.53;35.19;99124.91;5094741;28;20024;-47
2023/05/08 10:40:05;;;;;;;2.42;1.00;;;;;;;27.82;36.52;99128.91;5093304;28;20052;-47
2023/05/08 10:42:34;;;;;;;4.10;1.40;;;;;;;27.05;37.66;99138.53;5094494;28;20028;-46
2023/05/08 10:45:01;;;;;;;10.05;1.83;;;;;;;26.55;38.79;99137.53;5094751;28;20051;-46
2023/05/08 10:47:45;;;;;;;10.85;2.03;;;;;;;26.18;39.75;99140.00;5094356;28;20108;-46
2023/05/08 10:50:32;;;;;;;5.10;1.58;;;;;;;26.06;40.13;99135.06;5094439;28;20040;-47
2023/05/08 10:53:13;;;;;;;6.15;1.35;;;;;;;26.10;40.51;99133.38;5094388;28;20032;-47
2023/05/08 10:55:41;;;;;;;2.40;1.05;;;;;;;25.90;40.82;99147.13;5094248;28;20024;-47
2023/05/08 10:58:27;;;;;;;6.22;1.60;;;;;;;25.50;41.77;99141.16;5094282;28;20021;-46
2023/05/08 11:00:52;;;;;;;5.40;1.60;;;;;;;25.20;42.02;99136.91;5094300;28;20636;-46
2023/05/08 11:03:19;;;;;;;4.72;1.27;;;;;;;25.25;42.00;99135.00;5094241;28;20028;-46
2023/05/08 11:05:47;;;;;;;6.18;1.60;;;;;;;25.61;41.31;99112.25;5094072;28;20115;-46
2023/05/08 11:08:24;;;;;;;4.78;1.10;;;;;;;26.23;40.80;99125.66;5094144;28;20125;-46
2023/05/08 11:11:03;;;;;;;2.85;1.38;;;;;;;27.75;38.03;99122.34;5094063;28;20036;-46
2023/05/08 11:13:36;;;;;;;11.98;1.65;;;;;;;28.18;37.55;99121.94;5093938;28;20410;-46
2023/05/08 11:16:05;;;;;;;5.80;1.30;;;;;;;28.42;36.35;99117.03;5094190;28;20606;-47
2023/05/08 11:18:31;;;;;;;6.72;1.85;;;;;;;28.32;36.63;99114.59;5094116;28;20070;-46
2023/05/08 11:21:07;;;;;;;5.53;1.60;;;;;;;28.00;36.94;99111.00;5092601;28;20060;-46
2023/05/08 11:23:36;;;;;;;6.32;1.30;;;;;;;27.63;37.81;99118.28;5093868;28;20029;-47
2023/05/08 11:26:12;;;;;;;5.53;1.50;;;;;;;28.06;37.53;99123.28;5092422;28;20040;-47
2023/05/08 11:29:00;;;;;;;2.88;1.00;;;;;;;28.83;35.67;99115.22;5093671;28;20020;-47
2023/05/08 11:31:49;;;;;;;2.60;1.30;;;;;;;28.10;36.29;99107.28;5091838;28;20036;-47
2023/05/08 11:34:50;;;;;;;6.38;2.30;;;;;;;27.75;36.96;99119.63;5092354;28;20500;-46
2023/05/08 11:37:21;;;;;;;4.07;1.33;;;;;;;27.83;36.84;99113.53;5030569;28;20045;-47